createdAt,value
2023-01-29T00:00:17.495Z,74.600000
2023-01-29T00:05:27.572Z,74.841667
2023-01-29T00:06:22.404Z,74.841667
2023-01-29T00:10:17.849Z,75.275000
2023-01-29T00:15:17.292Z,75.650000
2023-01-29T00:20:17.826Z,75.888000
2023-01-29T00:25:17.164Z,76.016667
2023-01-29T00:30:17.556Z,75.840000
2023-01-29T00:35:17.087Z,75.766667
2023-01-29T00:40:17.871Z,75.941667
2023-01-29T00:45:17.404Z,76.191667
2023-01-29T00:50:17.568Z,76.266667
2023-01-29T00:55:17.162Z,76.133333
2023-01-29T01:00:17.603Z,76.200000
2023-01-29T01:05:17.125Z,76.275000
2023-01-29T01:10:17.718Z,76.456000
2023-01-29T01:15:17.324Z,76.433333
2023-01-29T01:20:18.343Z,76.570833
2023-01-29T01:25:17.058Z,76.700000
2023-01-29T01:30:17.445Z,76.868000
2023-01-29T01:35:17.234Z,76.970833
2023-01-29T01:40:17.497Z,76.987500
2023-01-29T01:45:17.071Z,77.250000
2023-01-29T01:50:17.509Z,77.441667
2023-01-29T01:55:17.399Z,77.433333
2023-01-29T02:00:17.477Z,77.533333
2023-01-29T02:05:17.243Z,77.783333
2023-01-29T02:10:18.924Z,77.732000
2023-01-29T02:15:17.240Z,77.945833
2023-01-29T02:20:17.486Z,78.116667
2023-01-29T02:25:17.747Z,78.237500
2023-01-29T02:30:17.717Z,78.340000
2023-01-29T02:35:17.105Z,78.400000
2023-01-29T02:40:17.501Z,78.400000
2023-01-29T02:45:17.163Z,78.354167
2023-01-29T02:50:17.645Z,78.300000
2023-01-29T02:55:17.508Z,78.416667
2023-01-29T03:00:17.533Z,78.476000
2023-01-29T03:05:16.997Z,78.640000
2023-01-29T03:10:17.438Z,78.683333
2023-01-29T03:15:17.186Z,78.995833
2023-01-29T03:20:17.895Z,79.262500
2023-01-29T03:25:17.023Z,79.462500
2023-01-29T03:30:17.840Z,79.756000
2023-01-29T03:35:17.299Z,80.000000
2023-01-29T03:40:17.356Z,80.087500
2023-01-29T03:45:17.076Z,80.033333
2023-01-29T03:50:17.937Z,80.016667
2023-01-29T03:55:17.042Z,79.936000
2023-01-29T04:00:17.609Z,79.995833
2023-01-29T04:05:17.139Z,80.000000
2023-01-29T04:10:17.613Z,80.000000
2023-01-29T04:15:17.364Z,79.995833
2023-01-29T04:20:17.549Z,79.900000
2023-01-29T04:25:17.105Z,79.900000
2023-01-29T04:30:17.423Z,79.883333
2023-01-29T04:35:17.070Z,79.900000
2023-01-29T04:40:17.524Z,79.884000
2023-01-29T04:45:17.018Z,79.812500
2023-01-29T04:50:17.644Z,79.783333
2023-01-29T04:55:17.122Z,79.783333
2023-01-29T05:00:17.354Z,79.687500
2023-01-29T05:05:22.203Z,79.600000
2023-01-29T05:10:17.831Z,79.611538
2023-01-29T05:15:17.283Z,79.816667
2023-01-29T05:20:17.492Z,79.954167
2023-01-29T05:25:17.144Z,80.087500
2023-01-29T05:30:17.587Z,80.184000
2023-01-29T05:35:17.121Z,80.200000
2023-01-29T05:40:17.304Z,80.100000
2023-01-29T05:45:17.339Z,80.144000
2023-01-29T05:50:17.437Z,80.124000
2023-01-29T05:55:17.126Z,80.312500
2023-01-29T06:00:17.450Z,80.404000
2023-01-29T06:05:17.245Z,80.500000
2023-01-29T06:10:17.571Z,80.533333
2023-01-29T06:15:17.302Z,80.666667
2023-01-29T06:20:17.451Z,80.516667
2023-01-29T06:25:17.296Z,80.379167
2023-01-29T06:30:52.155Z,80.262500
2023-01-29T06:35:17.085Z,80.183333
2023-01-29T06:40:17.485Z,80.133333
2023-01-29T06:45:17.148Z,79.988000
2023-01-29T06:50:17.929Z,80.041667
2023-01-29T06:55:17.415Z,79.958333
2023-01-29T07:00:17.500Z,79.680000
2023-01-29T07:05:17.188Z,79.483333
2023-01-29T07:10:17.619Z,79.400000
2023-01-29T07:15:17.147Z,79.432000
2023-01-29T07:20:17.377Z,79.237500
2023-01-29T07:25:17.096Z,79.145833
2023-01-29T07:30:17.753Z,79.233333
2023-01-29T07:35:17.050Z,79.233333
2023-01-29T07:40:17.410Z,79.196000
2023-01-29T07:45:17.014Z,79.100000
2023-01-29T07:50:17.522Z,79.083333
2023-01-29T07:55:17.140Z,79.137500
2023-01-29T08:00:17.409Z,79.029167
2023-01-29T08:05:17.334Z,79.000000
2023-01-29T08:10:17.927Z,78.956000
2023-01-29T08:15:28.608Z,78.800000
2023-01-29T08:20:17.495Z,78.786957
2023-01-29T08:25:17.134Z,78.770833
2023-01-29T08:30:18.443Z,78.666667
2023-01-29T08:35:17.742Z,78.879167
2023-01-29T08:40:17.295Z,78.920833
2023-01-29T08:45:17.043Z,78.979167
2023-01-29T08:50:17.569Z,78.933333
2023-01-29T08:55:17.390Z,79.052000
2023-01-29T09:00:17.468Z,79.084000
2023-01-29T09:05:17.361Z,78.850000
2023-01-29T09:10:17.283Z,78.783333
2023-01-29T09:15:17.712Z,78.788000
2023-01-29T09:20:17.106Z,78.872000
2023-01-29T09:25:17.487Z,78.975000
2023-01-29T09:30:17.518Z,78.900000
2023-01-29T09:35:17.402Z,79.100000
2023-01-29T09:40:17.104Z,78.741667
2023-01-29T09:45:17.296Z,78.733333
2023-01-29T09:50:19.157Z,78.679167
2023-01-29T09:55:17.440Z,78.716000
2023-01-29T10:00:17.015Z,78.688000
2023-01-29T10:05:17.368Z,78.780000
2023-01-29T10:10:17.221Z,78.800000
2023-01-29T10:15:17.654Z,78.829167
2023-01-29T10:20:16.951Z,79.041667
2023-01-29T10:25:17.221Z,79.175000
2023-01-29T10:30:17.091Z,79.024000
2023-01-29T10:35:17.301Z,78.800000
2023-01-29T10:40:16.984Z,78.724000
2023-01-29T10:45:17.535Z,78.570833
2023-01-29T10:50:16.981Z,78.741667
2023-01-29T10:55:17.367Z,78.816667
2023-01-29T11:00:17.820Z,78.550000
2023-01-29T11:05:17.649Z,78.420833
2023-01-29T11:10:17.498Z,78.550000
2023-01-29T11:15:17.168Z,78.708333
2023-01-29T11:20:17.679Z,78.504000
2023-01-29T11:25:16.979Z,78.420833
2023-01-29T11:30:17.705Z,78.429167
2023-01-29T11:35:17.004Z,78.575000
2023-01-29T11:40:17.610Z,78.704167
2023-01-29T11:45:16.874Z,78.000000
2023-01-29T11:50:17.703Z,77.448000
2023-01-29T11:55:16.934Z,77.584000
2023-01-29T12:00:17.136Z,77.845833
2023-01-29T12:05:17.103Z,77.716667
2023-01-29T12:10:17.481Z,77.364000
2023-01-29T12:15:17.179Z,77.228000
2023-01-29T12:20:17.246Z,77.766667
2023-01-29T12:25:16.976Z,77.233333
2023-01-29T12:30:17.386Z,77.083333
2023-01-29T12:35:16.961Z,77.144000
2023-01-29T12:40:17.370Z,76.966667
2023-01-29T12:45:17.028Z,77.237500
2023-01-29T12:50:17.369Z,76.773077
2023-01-29T12:55:17.164Z,77.512000
2023-01-29T13:00:17.547Z,77.341667
2023-01-29T13:05:16.846Z,77.241667
2023-01-29T13:10:17.575Z,77.050000
2023-01-29T13:15:17.158Z,77.516667
2023-01-29T13:20:17.247Z,77.337500
2023-01-29T13:25:17.401Z,77.336000
2023-01-29T13:30:17.195Z,77.164000
2023-01-29T13:35:17.197Z,77.712000
2023-01-29T13:40:16.957Z,77.556000
2023-01-29T13:45:17.507Z,77.400000
2023-01-29T13:50:17.073Z,77.433333
2023-01-29T13:55:17.237Z,77.666667
2023-01-29T14:00:17.193Z,77.583333
2023-01-29T14:05:17.254Z,77.368000
2023-01-29T14:10:16.945Z,77.454167
2023-01-29T14:15:20.679Z,77.540000
2023-01-29T14:20:16.965Z,77.816667
2023-01-29T14:25:17.187Z,77.762500
2023-01-29T14:30:16.921Z,77.979167
2023-01-29T14:35:17.305Z,78.133333
2023-01-29T14:40:17.211Z,78.056000
2023-01-29T14:45:17.155Z,78.004000
2023-01-29T14:50:16.988Z,77.933333
2023-01-29T14:55:17.394Z,78.237500
2023-01-29T15:00:16.857Z,78.725000
2023-01-29T15:05:17.271Z,78.504167
2023-01-29T15:10:22.771Z,78.150000
2023-01-29T15:15:17.657Z,78.050000
2023-01-29T15:20:16.940Z,78.362500
2023-01-29T15:25:17.250Z,78.541667
2023-01-29T15:30:16.966Z,78.404167
2023-01-29T15:35:17.241Z,78.237500
2023-01-29T15:40:17.257Z,77.904000
2023-01-29T15:45:17.388Z,78.004000
2023-01-29T15:50:17.341Z,78.175000
2023-01-29T15:55:19.698Z,78.300000
2023-01-29T16:00:19.709Z,78.292000
2023-01-29T16:05:19.796Z,78.220833
2023-01-29T16:10:19.630Z,78.220833
2023-01-29T16:15:19.922Z,77.891667
2023-01-29T16:20:19.369Z,77.800000
2023-01-29T16:25:19.745Z,77.712500
2023-01-29T16:30:19.418Z,77.686957
2023-01-29T16:35:19.789Z,77.795652
2023-01-29T16:40:19.323Z,77.900000
2023-01-29T16:45:19.558Z,77.844000
2023-01-29T16:50:19.314Z,77.616667
2023-01-29T16:55:20.030Z,77.466667
2023-01-29T17:00:19.400Z,77.183333
2023-01-29T17:05:19.928Z,77.191667
2023-01-29T17:10:19.347Z,77.075000
2023-01-29T17:15:19.655Z,77.050000
2023-01-29T17:20:19.418Z,76.920833
2023-01-29T17:25:19.828Z,76.800000
2023-01-29T17:30:19.476Z,76.933333
2023-01-29T17:35:19.923Z,77.045833
2023-01-29T17:40:19.474Z,77.079167
2023-01-29T17:45:19.984Z,77.050000
2023-01-29T17:50:19.304Z,77.012000
2023-01-29T17:55:19.659Z,76.983333
2023-01-29T18:05:19.886Z,77.069565
2023-01-29T18:10:19.288Z,77.154167
2023-01-29T18:15:19.811Z,76.979167
2023-01-29T18:20:19.273Z,77.050000
2023-01-29T18:25:19.900Z,77.170833
2023-01-29T18:30:19.270Z,77.183333
2023-01-29T18:35:19.788Z,77.250000
2023-01-29T18:40:19.612Z,77.470833
2023-01-29T18:45:19.707Z,77.354167
2023-01-29T18:50:19.225Z,77.166667
2023-01-29T18:55:19.756Z,77.154167
2023-01-29T19:00:19.363Z,77.112500
2023-01-29T19:05:19.738Z,77.220833
2023-01-29T19:10:19.213Z,77.366667
2023-01-29T19:15:19.758Z,77.300000
2023-01-29T19:20:19.290Z,77.329167
2023-01-29T19:25:19.844Z,77.225000
2023-01-29T19:30:19.438Z,77.100000
2023-01-29T19:35:19.748Z,77.179167
2023-01-29T19:40:19.232Z,77.487500
2023-01-29T19:45:37.159Z,77.616667
2023-01-29T19:50:19.275Z,77.637500
2023-01-29T19:55:19.856Z,77.600000
2023-01-29T20:00:19.299Z,77.683333
2023-01-29T20:05:19.827Z,77.840000
2023-01-29T20:10:19.734Z,78.008333
2023-01-29T20:15:19.479Z,78.012500
2023-01-29T20:20:19.571Z,77.950000
2023-01-29T20:25:19.250Z,77.670833
2023-01-29T20:30:19.693Z,77.637500
2023-01-29T20:35:19.363Z,77.625000
2023-01-29T20:40:19.528Z,77.680000
2023-01-29T20:45:19.252Z,77.687500
2023-01-29T20:50:17.511Z,77.650000
2023-01-29T20:55:19.273Z,77.600000
2023-01-29T21:00:19.640Z,77.520000
2023-01-29T21:05:19.644Z,77.575000
2023-01-29T21:10:19.657Z,77.483333
2023-01-29T21:15:19.597Z,77.591667
2023-01-29T21:20:19.468Z,77.632000
2023-01-29T21:25:19.270Z,77.533333
2023-01-29T21:30:19.761Z,77.316667
2023-01-29T21:35:19.358Z,77.266667
2023-01-29T21:40:19.817Z,77.370833
2023-01-29T21:45:19.249Z,77.316667
2023-01-29T21:50:19.687Z,77.304167
2023-01-29T21:55:19.256Z,77.504167
2023-01-29T22:00:19.444Z,77.666667
2023-01-29T22:05:19.699Z,77.679167
2023-01-29T22:10:17.142Z,77.736000
2023-01-29T22:15:17.141Z,77.566667
2023-01-29T22:20:17.152Z,77.741667
2023-01-29T22:25:16.876Z,77.816667
2023-01-29T22:30:17.239Z,77.766667
2023-01-29T22:35:16.750Z,77.883333
2023-01-29T22:40:17.430Z,77.854167
2023-01-29T22:45:16.638Z,77.800000
2023-01-29T22:50:17.212Z,77.783333
2023-01-29T22:55:16.914Z,77.704167
2023-01-29T23:00:17.620Z,77.650000
2023-01-29T23:05:16.821Z,77.633333
2023-01-29T23:10:17.202Z,77.662500
2023-01-29T23:15:16.869Z,77.700000
2023-01-29T23:20:17.116Z,77.600000
2023-01-29T23:25:16.671Z,77.666667
2023-01-29T23:30:17.375Z,77.616667
2023-01-29T23:35:16.734Z,77.641667
2023-01-29T23:40:17.340Z,77.633333
2023-01-29T23:45:16.677Z,77.716667
2023-01-29T23:50:17.037Z,77.732000
2023-01-29T23:55:16.720Z,77.704167
